createdAt,value
2019-05-12T00:00:09.783Z,2.03
2019-05-12T00:02:39.722Z,1.57
2019-05-12T00:05:08.997Z,1.87
2019-05-12T00:07:38.323Z,2.00
2019-05-12T00:10:08.607Z,1.90
2019-05-12T00:12:38.552Z,1.70
2019-05-12T00:15:08.655Z,2.70
2019-05-12T00:17:38.742Z,2.13
2019-05-12T00:20:08.647Z,2.67
2019-05-12T00:22:42.091Z,2.53
2019-05-12T00:25:10.807Z,2.10
2019-05-12T00:27:39.483Z,2.03
2019-05-12T00:30:10.507Z,1.83
2019-05-12T00:32:39.255Z,2.03
2019-05-12T00:35:08.492Z,2.13
2019-05-12T00:37:38.195Z,2.23
2019-05-12T00:40:08.795Z,2.23
2019-05-12T00:42:38.295Z,1.87
2019-05-12T00:45:08.075Z,2.00
2019-05-12T00:47:39.099Z,2.00
2019-05-12T00:50:08.020Z,2.00
2019-05-12T00:52:38.634Z,1.80
2019-05-12T00:55:08.131Z,1.87
2019-05-12T00:57:38.256Z,1.97
2019-05-12T01:00:08.876Z,2.13
2019-05-12T01:02:38.069Z,1.90
2019-05-12T01:05:08.736Z,1.90
2019-05-12T01:07:38.192Z,1.77
2019-05-12T01:10:08.612Z,2.00
2019-05-12T01:12:38.152Z,2.00
2019-05-12T01:15:08.242Z,2.95
2019-05-12T01:17:40.059Z,2.52
2019-05-12T01:20:08.991Z,2.20
2019-05-12T01:22:38.436Z,2.33
2019-05-12T01:25:08.714Z,2.15
2019-05-12T01:27:38.094Z,2.42
2019-05-12T01:30:08.739Z,2.20
2019-05-12T01:32:39.492Z,2.27
2019-05-12T01:35:09.126Z,2.50
2019-05-12T01:37:38.442Z,3.00
2019-05-12T01:40:09.293Z,3.50
2019-05-12T01:42:38.547Z,2.98
2019-05-12T01:45:09.268Z,3.45
2019-05-12T01:47:38.310Z,2.85
2019-05-12T01:50:09.117Z,2.65
2019-05-12T01:52:38.621Z,2.80
2019-05-12T01:55:08.525Z,2.60
2019-05-12T01:57:38.601Z,2.80
2019-05-12T02:00:11.991Z,2.83
2019-05-12T02:02:40.658Z,2.60
2019-05-12T02:05:10.852Z,2.90
2019-05-12T02:07:43.989Z,2.40
2019-05-12T02:10:13.122Z,2.40
2019-05-12T02:12:41.753Z,2.70
2019-05-12T02:15:10.538Z,2.27
2019-05-12T02:17:39.352Z,2.20
2019-05-12T02:20:09.822Z,2.25
2019-05-12T02:22:38.917Z,1.95
2019-05-12T02:25:08.292Z,2.15
2019-05-12T02:27:38.370Z,2.00
2019-05-12T02:30:10.158Z,1.75
2019-05-12T02:32:48.595Z,2.00
2019-05-12T02:35:09.832Z,1.72
2019-05-12T02:37:38.414Z,1.92
2019-05-12T02:40:09.071Z,2.08
2019-05-12T02:42:37.809Z,1.85
2019-05-12T02:45:08.346Z,2.15
2019-05-12T02:47:37.016Z,1.80
2019-05-12T02:50:09.310Z,2.08
2019-05-12T02:52:38.445Z,2.00
2019-05-12T02:55:07.363Z,1.72
2019-05-12T02:57:37.578Z,1.70
2019-05-12T03:00:07.472Z,1.52
2019-05-12T03:02:36.729Z,1.70
2019-05-12T03:05:10.331Z,2.00
2019-05-12T03:07:39.312Z,1.62
2019-05-12T03:10:09.027Z,1.80
2019-05-12T03:12:37.639Z,2.15
2019-05-12T03:15:07.061Z,1.77
2019-05-12T03:17:35.853Z,1.42
2019-05-12T03:20:06.269Z,1.90
2019-05-12T03:22:35.467Z,1.80
2019-05-12T03:25:15.365Z,1.52
2019-05-12T03:27:35.586Z,1.40
2019-05-12T03:30:11.857Z,1.30
2019-05-12T03:32:38.895Z,1.40
2019-05-12T03:35:09.315Z,1.33
2019-05-12T03:37:38.255Z,1.95
2019-05-12T03:40:07.868Z,1.30
2019-05-12T03:42:36.580Z,1.30
2019-05-12T03:45:06.299Z,1.23
2019-05-12T03:47:35.864Z,1.67
2019-05-12T03:50:09.337Z,1.57
2019-05-12T03:52:37.889Z,1.30
2019-05-12T03:55:24.921Z,1.20
2019-05-12T03:57:37.359Z,1.33
2019-05-12T04:00:08.557Z,1.47
2019-05-12T04:02:37.522Z,1.20
2019-05-12T04:05:07.150Z,2.50
2019-05-12T04:07:35.802Z,1.10
2019-05-12T04:10:07.163Z,1.50
2019-05-12T04:12:35.805Z,1.20
2019-05-12T04:15:06.147Z,1.40
2019-05-12T04:17:35.215Z,1.67
2019-05-12T04:20:05.828Z,1.70
2019-05-12T04:22:35.356Z,1.80
2019-05-12T04:25:06.423Z,1.50
2019-05-12T04:27:35.241Z,1.40
2019-05-12T04:30:06.067Z,1.40
2019-05-12T04:32:35.836Z,1.40
2019-05-12T04:35:06.842Z,1.53
2019-05-12T04:37:35.530Z,1.40
2019-05-12T04:40:05.600Z,1.50
2019-05-12T04:42:35.200Z,1.10
2019-05-12T04:45:05.473Z,1.63
2019-05-12T04:47:35.185Z,1.40
2019-05-12T04:50:05.739Z,1.50
2019-05-12T04:52:35.473Z,1.27
2019-05-12T04:55:05.711Z,1.33
2019-05-12T04:57:34.766Z,1.50
2019-05-12T05:00:05.616Z,1.30
2019-05-12T05:02:36.317Z,1.17
2019-05-12T05:05:06.698Z,1.73
2019-05-12T05:07:36.057Z,1.57
2019-05-12T05:10:06.459Z,1.17
2019-05-12T05:12:35.383Z,1.40
2019-05-12T05:15:05.902Z,1.80
2019-05-12T05:17:34.929Z,1.40
2019-05-12T05:20:05.050Z,1.30
2019-05-12T05:22:33.788Z,1.23
2019-05-12T05:25:04.276Z,1.50
2019-05-12T05:27:34.047Z,1.23
2019-05-12T05:30:04.029Z,1.30
2019-05-12T05:32:33.909Z,1.10
2019-05-12T05:35:03.984Z,1.23
2019-05-12T05:37:39.517Z,0.90
2019-05-12T05:40:06.877Z,1.17
2019-05-12T05:42:35.762Z,0.97
2019-05-12T05:45:10.027Z,1.03
2019-05-12T05:47:37.018Z,1.00
2019-05-12T05:50:07.454Z,0.97
2019-05-12T05:52:38.624Z,0.93
2019-05-12T05:55:14.603Z,0.90
2019-05-12T05:57:37.636Z,1.30
2019-05-12T06:00:17.403Z,1.20
2019-05-12T06:02:40.404Z,0.70
2019-05-12T06:05:08.669Z,1.00
2019-05-12T06:07:39.267Z,0.83
2019-05-12T06:10:09.132Z,1.03
2019-05-12T06:12:40.427Z,0.80
2019-05-12T06:15:09.105Z,0.80
2019-05-12T06:17:37.832Z,1.00
2019-05-12T06:20:06.928Z,0.93
2019-05-12T06:22:35.672Z,0.90
2019-05-12T06:25:06.384Z,1.00
2019-05-12T06:27:36.001Z,1.00
2019-05-12T06:30:08.162Z,0.80
2019-05-12T06:32:41.301Z,1.00
2019-05-12T06:35:07.917Z,1.10
2019-05-12T06:37:36.558Z,1.10
2019-05-12T06:40:08.034Z,1.03
2019-05-12T06:42:36.596Z,0.87
2019-05-12T06:45:06.112Z,1.13
2019-05-12T06:47:39.269Z,0.70
2019-05-12T06:50:06.462Z,1.20
2019-05-12T06:52:38.557Z,0.87
2019-05-12T06:55:06.320Z,0.93
2019-05-12T06:57:34.957Z,0.80
2019-05-12T07:00:05.979Z,0.87
2019-05-12T07:02:37.089Z,0.70
2019-05-12T07:05:05.617Z,0.70
2019-05-12T07:07:41.965Z,0.90
2019-05-12T07:10:11.615Z,0.80
2019-05-12T07:12:54.141Z,0.70
2019-05-12T07:15:07.613Z,0.80
2019-05-12T07:17:49.771Z,0.97
2019-05-12T07:20:17.042Z,0.80
2019-05-12T07:22:48.504Z,1.10
2019-05-12T07:25:15.816Z,1.00
2019-05-12T07:27:47.314Z,0.80
2019-05-12T07:30:16.167Z,1.17
2019-05-12T07:32:45.186Z,0.97
2019-05-12T07:35:14.792Z,1.20
2019-05-12T07:37:45.210Z,1.13
2019-05-12T07:40:13.906Z,1.03
2019-05-12T07:42:43.855Z,1.20
2019-05-12T07:45:20.127Z,0.90
2019-05-12T07:47:44.936Z,1.20
2019-05-12T07:50:16.281Z,0.93
2019-05-12T07:52:44.738Z,1.20
2019-05-12T07:55:14.804Z,1.20
2019-05-12T07:57:52.970Z,1.27
2019-05-12T08:00:21.019Z,1.60
2019-05-12T08:02:45.024Z,0.87
2019-05-12T08:05:19.576Z,1.10
2019-05-12T08:07:44.659Z,1.20
2019-05-12T08:10:17.830Z,1.20
2019-05-12T08:12:44.577Z,1.13
2019-05-12T08:15:14.056Z,0.90
2019-05-12T08:17:44.073Z,0.80
2019-05-12T08:20:13.492Z,0.83
2019-05-12T08:22:43.770Z,1.33
2019-05-12T08:25:13.454Z,0.73
2019-05-12T08:27:45.375Z,1.00
2019-05-12T08:30:13.960Z,0.60
2019-05-12T08:32:44.365Z,0.70
2019-05-12T08:35:13.915Z,0.80
2019-05-12T08:37:44.123Z,0.63
2019-05-12T08:40:15.393Z,0.77
2019-05-12T08:42:43.745Z,0.70
2019-05-12T08:45:15.151Z,0.93
2019-05-12T08:47:44.059Z,1.47
2019-05-12T08:50:13.677Z,0.83
2019-05-12T08:52:44.154Z,0.57
2019-05-12T08:55:16.342Z,0.67
2019-05-12T08:57:49.368Z,0.90
2019-05-12T09:00:14.522Z,0.70
2019-05-12T09:02:48.750Z,0.70
2019-05-12T09:05:14.399Z,0.50
2019-05-12T09:07:43.651Z,0.70
2019-05-12T09:10:14.322Z,0.70
2019-05-12T09:12:44.139Z,0.93
2019-05-12T09:15:13.627Z,0.80
2019-05-12T09:17:49.500Z,0.60
2019-05-12T09:20:13.871Z,0.70
2019-05-12T09:22:43.216Z,0.63
2019-05-12T09:25:14.101Z,0.50
2019-05-12T09:27:47.984Z,0.70
2019-05-12T09:30:14.201Z,0.80
2019-05-12T09:32:48.663Z,0.93
2019-05-12T09:35:14.451Z,0.70
2019-05-12T09:37:44.171Z,0.90
2019-05-12T09:40:14.859Z,0.60
2019-05-12T09:42:44.079Z,0.70
2019-05-12T09:45:13.784Z,0.80
2019-05-12T09:47:43.621Z,0.73
2019-05-12T09:50:16.081Z,0.90
2019-05-12T09:52:44.208Z,0.63
2019-05-12T09:55:14.823Z,1.13
2019-05-12T09:57:45.072Z,0.93
2019-05-12T10:00:16.547Z,0.70
2019-05-12T10:02:45.536Z,0.87
2019-05-12T10:05:14.548Z,0.80
2019-05-12T10:07:44.539Z,0.90
2019-05-12T10:10:14.162Z,1.00
2019-05-12T10:12:48.620Z,1.00
2019-05-12T10:15:18.636Z,1.07
2019-05-12T10:17:44.176Z,1.20
2019-05-12T10:20:13.652Z,1.33
2019-05-12T10:22:43.722Z,1.00
2019-05-12T10:25:14.357Z,0.70
2019-05-12T10:27:44.266Z,0.70
2019-05-12T10:30:17.453Z,0.70
2019-05-12T10:32:44.436Z,0.80
2019-05-12T10:35:20.985Z,0.90
2019-05-12T10:37:47.167Z,0.90
2019-05-12T10:40:14.411Z,0.70
2019-05-12T10:42:46.029Z,0.90
2019-05-12T10:45:17.140Z,1.17
2019-05-12T10:47:43.760Z,0.80
2019-05-12T10:50:14.411Z,0.90
2019-05-12T10:52:43.994Z,0.70
2019-05-12T10:55:14.438Z,0.60
2019-05-12T10:57:43.959Z,0.90
2019-05-12T11:00:19.615Z,0.80
2019-05-12T11:02:45.728Z,0.83
2019-05-12T11:05:21.460Z,0.90
2019-05-12T11:07:44.637Z,0.70
2019-05-12T11:10:19.579Z,0.80
2019-05-12T11:12:44.288Z,0.80
2019-05-12T11:15:13.603Z,0.97
2019-05-12T11:17:53.332Z,0.80
2019-05-12T11:20:25.078Z,0.87
2019-05-12T11:22:54.349Z,0.70
2019-05-12T11:25:24.708Z,0.80
2019-05-12T11:27:54.954Z,0.70
2019-05-12T11:30:23.914Z,0.70
2019-05-12T11:32:54.040Z,0.80
2019-05-12T11:35:23.729Z,0.80
2019-05-12T11:37:53.843Z,0.90
2019-05-12T11:40:23.938Z,1.10
2019-05-12T11:42:59.089Z,0.87
2019-05-12T11:45:24.214Z,1.00
2019-05-12T11:47:59.119Z,0.70
2019-05-12T11:50:23.653Z,0.63
2019-05-12T11:52:52.359Z,0.90
2019-05-12T11:55:21.465Z,0.83
2019-05-12T11:57:51.194Z,0.70
2019-05-12T12:00:21.545Z,0.80
2019-05-12T12:02:50.536Z,0.83
2019-05-12T12:05:19.155Z,0.83
2019-05-12T12:07:50.756Z,0.80
2019-05-12T12:10:18.105Z,0.73
2019-05-12T12:12:49.344Z,0.60
2019-05-12T12:15:20.592Z,0.90
2019-05-12T12:17:47.315Z,0.70
2019-05-12T12:20:22.210Z,0.60
2019-05-12T12:22:49.708Z,1.00
2019-05-12T12:25:20.417Z,0.83
2019-05-12T12:27:49.350Z,0.70
2019-05-12T12:30:19.894Z,0.67
2019-05-12T12:32:50.311Z,0.60
2019-05-12T12:35:18.643Z,0.90
2019-05-12T12:37:47.322Z,0.73
2019-05-12T12:40:16.019Z,0.60
2019-05-12T12:42:47.240Z,0.70
2019-05-12T12:45:19.655Z,0.67
2019-05-12T12:47:49.367Z,0.70
2019-05-12T12:50:20.114Z,0.70
2019-05-12T12:52:48.948Z,0.70
2019-05-12T12:55:17.676Z,0.70
2019-05-12T12:57:50.610Z,0.60
2019-05-12T13:00:28.804Z,0.70
2019-05-12T13:02:49.421Z,1.03
2019-05-12T13:05:18.175Z,0.70
2019-05-12T13:07:46.784Z,0.70
2019-05-12T13:10:15.495Z,0.50
2019-05-12T13:12:44.065Z,0.70
2019-05-12T13:15:14.463Z,0.70
2019-05-12T13:17:44.727Z,0.50
2019-05-12T13:20:14.013Z,0.70
2019-05-12T13:22:44.336Z,0.60
2019-05-12T13:25:14.340Z,0.90
2019-05-12T13:27:42.948Z,0.67
2019-05-12T13:30:19.558Z,0.70
2019-05-12T13:32:44.205Z,1.30
2019-05-12T13:35:16.500Z,0.70
2019-05-12T13:37:43.318Z,1.13
2019-05-12T13:40:13.051Z,0.80
2019-05-12T13:42:43.613Z,0.93
2019-05-12T13:45:15.972Z,0.60
2019-05-12T13:47:43.965Z,0.80
2019-05-12T13:50:21.291Z,0.60
2019-05-12T13:52:43.249Z,0.70
2019-05-12T13:55:13.418Z,0.77
2019-05-12T13:57:46.603Z,1.97
2019-05-12T14:00:14.132Z,3.10
2019-05-12T14:02:44.251Z,6.97
2019-05-12T14:05:15.133Z,6.60
2019-05-12T14:07:44.194Z,1.93
2019-05-12T14:10:13.933Z,0.73
2019-05-12T14:12:43.890Z,0.70
2019-05-12T14:15:14.153Z,0.67
2019-05-12T14:17:43.699Z,0.57
2019-05-12T14:20:19.724Z,0.83
2019-05-12T14:22:45.924Z,0.47
2019-05-12T14:25:15.613Z,0.80
2019-05-12T14:27:45.321Z,0.70
2019-05-12T14:30:14.791Z,0.72
2019-05-12T14:32:44.093Z,0.88
2019-05-12T14:35:13.139Z,0.47
2019-05-12T14:37:45.991Z,0.42
2019-05-12T14:40:13.337Z,0.62
2019-05-12T14:42:44.260Z,0.60
2019-05-12T14:45:13.829Z,0.57
2019-05-12T14:47:43.666Z,0.55
2019-05-12T14:50:14.111Z,0.50
2019-05-12T14:52:43.993Z,0.57
2019-05-12T14:55:13.809Z,0.95
2019-05-12T14:57:42.776Z,0.60
2019-05-12T15:00:17.305Z,0.65
2019-05-12T15:02:43.798Z,0.53
2019-05-12T15:05:14.102Z,0.60
2019-05-12T15:07:51.024Z,0.45
2019-05-12T15:10:14.199Z,0.50
2019-05-12T15:12:44.106Z,0.65
2019-05-12T15:15:20.265Z,0.70
2019-05-12T15:17:44.441Z,0.40
2019-05-12T15:20:14.150Z,0.47
2019-05-12T15:22:51.161Z,0.60
2019-05-12T15:25:14.534Z,0.50
2019-05-12T15:27:46.090Z,0.40
2019-05-12T15:30:22.372Z,0.40
2019-05-12T15:32:47.017Z,0.50
2019-05-12T15:35:18.299Z,0.70
2019-05-12T15:37:46.218Z,0.60
2019-05-12T15:40:15.128Z,0.70
2019-05-12T15:42:45.330Z,0.80
2019-05-12T15:45:16.505Z,0.50
2019-05-12T15:47:44.909Z,0.50
2019-05-12T15:50:14.971Z,0.55
2019-05-12T15:52:45.738Z,0.60
2019-05-12T15:55:17.818Z,0.55
2019-05-12T15:57:44.678Z,1.00
2019-05-12T16:00:16.776Z,0.50
2019-05-12T16:02:44.244Z,0.60
2019-05-12T16:05:14.541Z,0.50
2019-05-12T16:07:47.294Z,0.60
2019-05-12T16:10:15.248Z,0.67
2019-05-12T16:12:44.150Z,0.60
2019-05-12T16:15:17.171Z,0.50
2019-05-12T16:17:44.278Z,0.50
2019-05-12T16:20:14.361Z,1.10
2019-05-12T16:22:45.221Z,0.60
2019-05-12T16:25:15.152Z,0.80
2019-05-12T16:27:44.560Z,0.60
2019-05-12T16:30:14.953Z,0.50
2019-05-12T16:32:47.705Z,0.70
2019-05-12T16:35:14.643Z,0.70
2019-05-12T16:37:44.485Z,0.67
2019-05-12T16:40:14.016Z,0.60
2019-05-12T16:42:50.381Z,0.70
2019-05-12T16:45:14.569Z,1.03
2019-05-12T16:47:44.774Z,0.70
2019-05-12T16:50:15.985Z,0.70
2019-05-12T16:52:45.297Z,0.80
2019-05-12T16:55:14.452Z,0.93
2019-05-12T16:57:51.427Z,0.50
2019-05-12T17:00:14.345Z,0.53
2019-05-12T17:02:52.025Z,0.70
2019-05-12T17:05:19.742Z,0.50
2019-05-12T17:07:44.403Z,0.70
2019-05-12T17:10:16.607Z,0.57
2019-05-12T17:12:48.296Z,0.63
2019-05-12T17:15:15.730Z,0.50
2019-05-12T17:17:44.975Z,0.50
2019-05-12T17:20:14.114Z,0.30
2019-05-12T17:22:54.416Z,0.50
2019-05-12T17:25:15.427Z,0.60
2019-05-12T17:27:45.041Z,0.50
2019-05-12T17:30:14.497Z,0.60
2019-05-12T17:32:57.194Z,0.80
2019-05-12T17:35:14.873Z,0.70
2019-05-12T17:37:43.718Z,0.60
2019-05-12T17:40:20.170Z,0.63
2019-05-12T17:42:44.359Z,0.40
2019-05-12T17:45:20.323Z,0.50
2019-05-12T17:47:44.694Z,0.63
2019-05-12T17:50:15.193Z,0.70
2019-05-12T17:52:44.924Z,0.60
2019-05-12T17:55:14.754Z,0.70
2019-05-12T17:57:44.320Z,0.90
2019-05-12T18:00:14.529Z,1.10
2019-05-12T18:02:44.078Z,0.70
2019-05-12T18:05:15.583Z,0.67
2019-05-12T18:07:44.897Z,1.23
2019-05-12T18:10:15.525Z,0.73
2019-05-12T18:12:45.435Z,1.13
2019-05-12T18:15:15.508Z,0.80
2019-05-12T18:17:49.591Z,0.70
2019-05-12T18:20:15.707Z,0.80
2019-05-12T18:22:47.068Z,0.90
2019-05-12T18:25:14.997Z,0.87
2019-05-12T18:27:50.389Z,0.90
2019-05-12T18:30:18.943Z,1.20
2019-05-12T18:32:45.652Z,0.70
2019-05-12T18:35:14.796Z,1.00
2019-05-12T18:37:43.389Z,0.73
2019-05-12T18:40:14.774Z,1.10
2019-05-12T18:42:43.442Z,1.10
2019-05-12T18:45:17.554Z,1.10
2019-05-12T18:47:43.937Z,1.10
2019-05-12T18:50:14.289Z,1.13
2019-05-12T18:52:46.151Z,1.10
2019-05-12T18:55:13.481Z,1.00
2019-05-12T18:57:46.182Z,1.20
2019-05-12T19:00:15.692Z,0.90
2019-05-12T19:02:44.336Z,0.80
2019-05-12T19:05:21.940Z,1.30
2019-05-12T19:07:43.896Z,1.00
2019-05-12T19:10:14.217Z,1.33
2019-05-12T19:12:43.900Z,1.20
2019-05-12T19:15:17.061Z,1.30
2019-05-12T19:17:45.617Z,1.20
2019-05-12T19:20:14.451Z,1.37
2019-05-12T19:22:48.138Z,1.07
2019-05-12T19:25:19.161Z,1.27
2019-05-12T19:27:49.952Z,1.10
2019-05-12T19:30:19.289Z,1.23
2019-05-12T19:32:47.261Z,0.90
2019-05-12T19:35:20.215Z,1.03
2019-05-12T19:37:46.281Z,1.30
2019-05-12T19:40:17.705Z,1.10
2019-05-12T19:42:46.738Z,1.27
2019-05-12T19:45:21.442Z,1.00
2019-05-12T19:47:48.920Z,1.17
2019-05-12T19:50:18.583Z,1.03
2019-05-12T19:52:46.338Z,1.00
2019-05-12T19:55:14.984Z,1.10
2019-05-12T19:57:44.431Z,1.00
2019-05-12T20:00:13.990Z,1.00
2019-05-12T20:02:42.830Z,1.30
2019-05-12T20:05:15.063Z,1.13
2019-05-12T20:07:44.421Z,1.10
2019-05-12T20:10:16.289Z,1.13
2019-05-12T20:12:43.768Z,1.10
2019-05-12T20:15:15.201Z,1.17
2019-05-12T20:17:44.708Z,1.00
2019-05-12T20:20:17.768Z,1.10
2019-05-12T20:22:44.836Z,1.17
2019-05-12T20:25:14.608Z,1.23
2019-05-12T20:27:44.525Z,1.40
2019-05-12T20:30:20.449Z,1.33
2019-05-12T20:32:45.326Z,1.30
2019-05-12T20:35:14.782Z,1.40
2019-05-12T20:37:52.724Z,1.07
2019-05-12T20:40:14.955Z,1.33
2019-05-12T20:43:05.275Z,1.27
2019-05-12T20:45:14.684Z,1.70
2019-05-12T20:47:45.078Z,1.30
2019-05-12T20:50:14.930Z,1.33
2019-05-12T20:52:46.326Z,1.30
2019-05-12T20:55:14.800Z,1.23
2019-05-12T20:57:50.273Z,1.40
2019-05-12T21:00:14.438Z,1.30
2019-05-12T21:02:44.229Z,1.30
2019-05-12T21:05:19.540Z,1.37
2019-05-12T21:07:44.309Z,1.83
2019-05-12T21:10:14.788Z,1.50
2019-05-12T21:12:46.605Z,1.93
2019-05-12T21:15:20.167Z,1.80
2019-05-12T21:17:52.024Z,1.43
2019-05-12T21:20:16.790Z,1.77
2019-05-12T21:22:45.662Z,1.40
2019-05-12T21:25:14.481Z,1.30
2019-05-12T21:27:46.828Z,1.60
2019-05-12T21:30:15.219Z,1.70
2019-05-12T21:32:47.380Z,1.50
2019-05-12T21:35:21.906Z,1.70
2019-05-12T21:37:46.343Z,1.40
2019-05-12T21:40:15.264Z,1.70
2019-05-12T21:42:44.596Z,1.60
2019-05-12T21:45:14.764Z,1.40
2019-05-12T21:47:44.645Z,1.67
2019-05-12T21:50:14.283Z,1.50
2019-05-12T21:52:44.604Z,1.50
2019-05-12T21:55:21.226Z,1.67
2019-05-12T21:57:44.056Z,1.60
2019-05-12T22:00:34.663Z,1.43
2019-05-12T22:03:10.302Z,1.77
2019-05-12T22:05:54.653Z,1.47
2019-05-12T22:08:07.006Z,1.60
2019-05-12T22:10:37.022Z,2.40
2019-05-12T22:13:14.026Z,1.43
2019-05-12T22:15:36.114Z,1.60
2019-05-12T22:18:05.217Z,2.10
2019-05-12T22:20:35.451Z,1.57
2019-05-12T22:23:11.978Z,1.50
2019-05-12T22:25:35.214Z,1.60
2019-05-12T22:28:09.543Z,1.90
2019-05-12T22:30:35.200Z,1.70
2019-05-12T22:33:09.194Z,1.90
2019-05-12T22:35:34.304Z,1.90
2019-05-12T22:38:09.146Z,2.27
2019-05-12T22:40:33.512Z,2.30
2019-05-12T22:43:04.457Z,2.03
2019-05-12T22:45:36.080Z,2.30
2019-05-12T22:48:04.092Z,1.87
2019-05-12T22:50:35.158Z,2.37
2019-05-12T22:53:04.411Z,2.17
2019-05-12T22:55:36.015Z,2.53
2019-05-12T22:58:03.549Z,2.37
2019-05-12T23:00:34.195Z,2.33
2019-05-12T23:03:07.241Z,2.40
2019-05-12T23:05:33.802Z,2.57
2019-05-12T23:08:05.954Z,2.37
2019-05-12T23:10:32.703Z,2.10
2019-05-12T23:13:04.741Z,2.40
2019-05-12T23:15:33.484Z,2.30
2019-05-12T23:18:04.300Z,2.33
2019-05-12T23:20:33.386Z,2.23
2019-05-12T23:23:03.925Z,2.57
2019-05-12T23:25:33.624Z,2.20
2019-05-12T23:28:08.327Z,3.67
2019-05-12T23:30:32.774Z,2.73
2019-05-12T23:33:03.523Z,2.40
2019-05-12T23:35:34.949Z,3.10
2019-05-12T23:38:04.224Z,2.60
2019-05-12T23:40:34.241Z,2.67
2019-05-12T23:43:04.029Z,2.70
2019-05-12T23:45:33.884Z,2.90
2019-05-12T23:48:03.676Z,3.00
2019-05-12T23:50:32.705Z,2.80
2019-05-12T23:53:03.533Z,3.37
2019-05-12T23:55:34.680Z,3.40
2019-05-12T23:58:04.216Z,3.63
